Time;durP1;ratioP1;P1;durP2;ratioP2;P2;SDS_P1;SDS_P2;PMS_P1;PMS_P2;Temp;Humidity;BMP_temperature;BMP_pressure;BME280_temperature;BME280_humidity;BME280_pressure;Samples;Min_cycle;Max_cycle;Signal;HPM_P1;HPM_P2
2023/07/09 00:00:49;;;;;;;11.27;10.23;;;;;;;;;;4960492;28;20455;-87
2023/07/09 00:03:18;;;;;;;9.20;8.30;;;;;;;;;;4959118;28;20445;-86
2023/07/09 00:05:48;;;;;;;12.23;8.97;;;;;;;;;;4957107;28;20446;-85
2023/07/09 00:08:27;;;;;;;9.50;8.70;;;;;;;;;;4958707;29;20584;-85
2023/07/09 00:10:55;;;;;;;9.10;8.20;;;;;;;;;;4960808;28;20504;-84
2023/07/09 00:13:24;;;;;;;10.43;9.20;;;;;;;;;;4960750;28;20665;-85
2023/07/09 00:15:52;;;;;;;13.77;10.07;;;;;;;;;;4960489;28;20449;-85
2023/07/09 00:18:19;;;;;;;11.50;10.23;;;;;;;;;;4963623;28;20437;-82
2023/07/09 00:20:47;;;;;;;14.00;11.40;;;;;;;;;;4965817;28;20504;-82
2023/07/09 00:23:16;;;;;;;12.63;11.07;;;;;;;;;;4972428;28;20509;-83
2023/07/09 00:25:44;;;;;;;17.07;11.17;;;;;;;;;;4957304;29;20503;-86
2023/07/09 00:28:13;;;;;;;13.80;10.20;;;;;;;;;;4960317;28;20452;-85
2023/07/09 00:30:41;;;;;;;11.33;10.23;;;;;;;;;;4961929;28;20873;-88
2023/07/09 00:33:13;;;;;;;13.53;11.20;;;;;;;;;;4958047;28;20492;-86
2023/07/09 00:35:46;;;;;;;13.57;10.87;;;;;;;;;;4971536;28;20429;-82
2023/07/09 00:38:14;;;;;;;11.83;9.97;;;;;;;;;;4969844;28;20453;-83
2023/07/09 00:40:47;;;;;;;12.93;10.23;;;;;;;;;;4958508;28;20449;-84
2023/07/09 00:43:16;;;;;;;14.80;11.33;;;;;;;;;;4961371;28;20523;-87
2023/07/09 00:45:44;;;;;;;23.77;10.43;;;;;;;;;;4962156;28;20453;-85
2023/07/09 00:48:15;;;;;;;13.80;10.07;;;;;;;;;;4959673;28;20467;-84
2023/07/09 00:50:47;;;;;;;11.60;10.50;;;;;;;;;;4958960;28;20767;-84
2023/07/09 00:53:30;;;;;;;12.27;10.80;;;;;;;;;;4954385;29;20446;-86
2023/07/09 00:56:06;;;;;;;12.83;11.17;;;;;;;;;;4959200;28;20652;-83
2023/07/09 00:58:35;;;;;;;11.90;10.90;;;;;;;;;;4954438;28;20442;-83
2023/07/09 01:01:05;;;;;;;12.20;11.17;;;;;;;;;;4959559;28;20448;-83
2023/07/09 01:03:35;;;;;;;11.30;10.20;;;;;;;;;;4960290;28;20416;-82
2023/07/09 01:06:03;;;;;;;11.60;10.40;;;;;;;;;;4960636;28;20477;-83
2023/07/09 01:08:33;;;;;;;11.43;10.40;;;;;;;;;;4959852;28;20463;-83
2023/07/09 01:11:00;;;;;;;11.87;10.77;;;;;;;;;;4959097;29;20446;-83
2023/07/09 01:13:32;;;;;;;10.97;9.97;;;;;;;;;;4957081;28;20796;-83
2023/07/09 01:16:00;;;;;;;13.13;11.20;;;;;;;;;;4953744;29;20472;-84
2023/07/09 01:18:28;;;;;;;12.07;10.97;;;;;;;;;;4956203;29;20456;-84
2023/07/09 01:21:09;;;;;;;12.68;9.85;;;;;;;;;;4958930;28;20431;-83
2023/07/09 01:23:36;;;;;;;11.53;10.43;;;;;;;;;;4960658;28;20245;-83
2023/07/09 01:26:04;;;;;;;11.07;10.03;;;;;;;;;;4959476;28;20491;-83
2023/07/09 01:28:32;;;;;;;14.43;10.87;;;;;;;;;;4953659;28;20529;-85
2023/07/09 01:31:00;;;;;;;13.67;9.70;;;;;;;;;;4963789;28;20508;-83
2023/07/09 01:33:28;;;;;;;11.67;10.77;;;;;;;;;;4958335;29;20455;-83
2023/07/09 01:36:00;;;;;;;12.60;11.50;;;;;;;;;;4958671;28;20649;-83
2023/07/09 01:38:31;;;;;;;12.50;11.20;;;;;;;;;;4959874;28;20412;-84
2023/07/09 01:40:59;;;;;;;12.53;10.80;;;;;;;;;;4960376;28;20672;-84
2023/07/09 01:43:27;;;;;;;13.57;10.10;;;;;;;;;;4954714;28;20477;-83
2023/07/09 01:45:57;;;;;;;12.10;11.00;;;;;;;;;;4959103;29;20555;-84
2023/07/09 01:48:26;;;;;;;12.57;10.50;;;;;;;;;;4954540;29;20509;-86
2023/07/09 01:50:54;;;;;;;14.03;11.40;;;;;;;;;;4959071;28;20793;-82
2023/07/09 01:53:23;;;;;;;12.07;10.87;;;;;;;;;;4956096;28;20522;-84
2023/07/09 01:55:51;;;;;;;12.90;11.70;;;;;;;;;;4961713;28;20452;-83
2023/07/09 01:58:19;;;;;;;14.50;13.30;;;;;;;;;;4959069;28;20454;-85
2023/07/09 02:00:47;;;;;;;11.90;10.80;;;;;;;;;;4956620;28;20446;-84
2023/07/09 02:03:17;;;;;;;16.87;12.13;;;;;;;;;;4960424;28;20449;-85
2023/07/09 02:05:45;;;;;;;12.87;11.60;;;;;;;;;;4959546;28;20493;-83
2023/07/09 02:08:13;;;;;;;11.27;10.07;;;;;;;;;;4958201;29;20497;-84
2023/07/09 02:10:40;;;;;;;11.87;10.87;;;;;;;;;;4964227;28;20497;-84
2023/07/09 02:13:07;;;;;;;11.70;10.73;;;;;;;;;;4973053;28;20532;-83
2023/07/09 02:15:36;;;;;;;12.17;11.00;;;;;;;;;;4973265;28;20549;-83
2023/07/09 02:18:04;;;;;;;10.63;9.73;;;;;;;;;;4973041;28;20500;-85
2023/07/09 02:20:31;;;;;;;13.47;10.73;;;;;;;;;;4968919;28;20453;-89
2023/07/09 02:22:58;;;;;;;14.30;10.23;;;;;;;;;;4962091;29;20444;-89
2023/07/09 02:25:26;;;;;;;12.40;11.10;;;;;;;;;;4962672;28;20460;-87
2023/07/09 02:27:53;;;;;;;11.00;10.00;;;;;;;;;;4964248;28;20544;-84
2023/07/09 02:30:21;;;;;;;11.57;10.67;;;;;;;;;;4964052;28;20712;-87
2023/07/09 02:32:48;;;;;;;12.57;11.30;;;;;;;;;;4969167;28;20540;-87
2023/07/09 02:35:16;;;;;;;13.53;12.40;;;;;;;;;;4966736;28;20411;-88
2023/07/09 02:37:43;;;;;;;16.63;11.73;;;;;;;;;;4967600;29;20497;-85
2023/07/09 02:40:12;;;;;;;12.00;10.87;;;;;;;;;;4963032;28;20810;-86
2023/07/09 02:42:39;;;;;;;12.00;10.63;;;;;;;;;;4959635;28;20539;-88
2023/07/09 02:45:07;;;;;;;13.07;11.97;;;;;;;;;;4964654;28;20512;-88
2023/07/09 02:47:35;;;;;;;12.80;11.43;;;;;;;;;;5572946;23;20516;-88
2023/07/09 02:50:03;;;;;;;12.10;10.53;;;;;;;;;;4960708;28;20445;-87
2023/07/09 02:52:30;;;;;;;12.13;10.87;;;;;;;;;;4962629;28;20627;-88
2023/07/09 02:54:57;;;;;;;12.97;11.47;;;;;;;;;;4956921;28;20897;-88
2023/07/09 02:57:25;;;;;;;11.83;10.73;;;;;;;;;;4958868;29;20445;-85
2023/07/09 02:59:52;;;;;;;12.50;11.40;;;;;;;;;;4958633;28;20488;-83
2023/07/09 03:02:19;;;;;;;13.97;10.87;;;;;;;;;;4956858;28;20677;-86
2023/07/09 03:04:47;;;;;;;13.37;12.07;;;;;;;;;;4964123;28;20457;-88
2023/07/09 03:07:14;;;;;;;12.53;11.33;;;;;;;;;;4965982;28;20444;-84
2023/07/09 03:09:42;;;;;;;12.50;11.20;;;;;;;;;;4975963;28;20568;-84
2023/07/09 03:12:11;;;;;;;12.63;11.33;;;;;;;;;;4975821;28;20821;-84
2023/07/09 03:14:38;;;;;;;13.40;12.13;;;;;;;;;;4973328;29;20463;-84
2023/07/09 03:17:06;;;;;;;12.10;11.00;;;;;;;;;;4963964;28;20481;-84
2023/07/09 03:19:33;;;;;;;13.40;11.23;;;;;;;;;;4960334;29;20446;-84
2023/07/09 03:22:03;;;;;;;15.13;11.53;;;;;;;;;;4962724;28;20513;-86
2023/07/09 03:24:31;;;;;;;13.80;11.40;;;;;;;;;;4963550;28;20516;-87
2023/07/09 03:26:58;;;;;;;12.93;11.53;;;;;;;;;;4955506;28;20430;-87
2023/07/09 03:29:26;;;;;;;13.40;11.37;;;;;;;;;;4960288;29;20836;-84
2023/07/09 03:31:53;;;;;;;13.10;10.27;;;;;;;;;;4963032;28;20465;-87
2023/07/09 03:34:21;;;;;;;12.13;10.70;;;;;;;;;;4963466;28;20445;-85
2023/07/09 03:36:48;;;;;;;14.60;13.10;;;;;;;;;;4958525;28;20499;-86
2023/07/09 03:39:16;;;;;;;11.00;10.00;;;;;;;;;;4969874;28;20480;-83
2023/07/09 03:41:44;;;;;;;12.73;11.57;;;;;;;;;;4962275;29;20507;-81
2023/07/09 03:44:12;;;;;;;11.77;10.57;;;;;;;;;;4963707;28;20623;-84
2023/07/09 03:46:40;;;;;;;15.50;10.87;;;;;;;;;;4958211;29;20737;-85
2023/07/09 03:49:08;;;;;;;14.37;11.63;;;;;;;;;;4966797;28;20467;-84
2023/07/09 03:51:35;;;;;;;15.13;12.20;;;;;;;;;;4952421;28;20480;-80
2023/07/09 03:54:03;;;;;;;12.77;11.47;;;;;;;;;;4953191;28;20466;-82
2023/07/09 03:56:30;;;;;;;11.30;10.27;;;;;;;;;;4952231;28;20507;-84
2023/07/09 03:58:58;;;;;;;14.60;12.10;;;;;;;;;;4959776;28;20789;-82
2023/07/09 04:01:25;;;;;;;15.00;12.47;;;;;;;;;;4953285;28;20519;-83
2023/07/09 04:03:52;;;;;;;14.03;11.03;;;;;;;;;;4960842;28;20420;-83
2023/07/09 04:06:20;;;;;;;14.33;12.93;;;;;;;;;;4961028;28;20512;-86
2023/07/09 04:08:47;;;;;;;12.00;10.80;;;;;;;;;;4960235;29;20548;-84
2023/07/09 04:11:15;;;;;;;15.13;11.67;;;;;;;;;;4961259;29;20445;-83
2023/07/09 04:13:42;;;;;;;11.63;10.53;;;;;;;;;;4959553;28;20504;-84
2023/07/09 04:16:12;;;;;;;12.47;11.30;;;;;;;;;;4958583;28;20471;-82
2023/07/09 04:18:40;;;;;;;13.57;11.33;;;;;;;;;;4959195;28;20416;-83
2023/07/09 04:21:07;;;;;;;13.53;11.47;;;;;;;;;;4956354;28;20539;-81
2023/07/09 04:23:35;;;;;;;12.87;11.50;;;;;;;;;;4957637;29;20424;-82
2023/07/09 04:26:03;;;;;;;12.63;11.17;;;;;;;;;;4954372;29;20708;-87
2023/07/09 04:28:31;;;;;;;13.10;11.77;;;;;;;;;;4961294;28;20684;-83
2023/07/09 04:30:59;;;;;;;11.73;10.53;;;;;;;;;;4955725;29;20449;-86
2023/07/09 04:33:26;;;;;;;19.10;12.30;;;;;;;;;;4959358;28;20409;-83
2023/07/09 04:35:54;;;;;;;12.50;10.63;;;;;;;;;;4954905;28;20479;-82
2023/07/09 04:38:21;;;;;;;12.10;10.87;;;;;;;;;;4958627;28;20426;-81
2023/07/09 04:40:50;;;;;;;17.40;10.87;;;;;;;;;;4958908;28;20509;-80
2023/07/09 04:43:17;;;;;;;12.30;11.00;;;;;;;;;;4956924;28;20508;-82
2023/07/09 04:45:45;;;;;;;10.50;9.50;;;;;;;;;;4956711;29;20464;-83
2023/07/09 04:48:12;;;;;;;11.53;10.37;;;;;;;;;;4950669;29;20559;-82
2023/07/09 04:50:40;;;;;;;12.23;10.93;;;;;;;;;;4948733;29;20424;-81
2023/07/09 04:53:07;;;;;;;12.10;10.83;;;;;;;;;;4957293;28;20484;-82
2023/07/09 04:55:35;;;;;;;14.67;11.07;;;;;;;;;;4962778;28;20449;-84
2023/07/09 04:58:02;;;;;;;12.70;11.40;;;;;;;;;;4956734;28;20420;-81
2023/07/09 05:00:30;;;;;;;11.43;10.23;;;;;;;;;;4955829;28;20480;-82
2023/07/09 05:02:57;;;;;;;11.73;10.60;;;;;;;;;;4959595;28;20628;-81
2023/07/09 05:05:25;;;;;;;11.27;10.17;;;;;;;;;;4958228;28;20496;-79
2023/07/09 05:07:52;;;;;;;12.60;11.30;;;;;;;;;;4959733;28;20439;-81
2023/07/09 05:10:20;;;;;;;10.67;9.67;;;;;;;;;;4960404;28;20479;-79
2023/07/09 05:12:48;;;;;;;12.40;11.30;;;;;;;;;;4959168;28;20849;-81
2023/07/09 05:15:16;;;;;;;13.70;12.40;;;;;;;;;;4959506;29;20550;-80
2023/07/09 05:17:45;;;;;;;11.40;10.30;;;;;;;;;;4952009;29;20431;-79
2023/07/09 05:20:13;;;;;;;13.50;11.40;;;;;;;;;;4960487;28;20424;-81
2023/07/09 05:22:41;;;;;;;12.63;11.43;;;;;;;;;;4963363;28;20438;-81
2023/07/09 05:25:08;;;;;;;12.97;11.77;;;;;;;;;;4960063;28;20483;-78
2023/07/09 05:27:36;;;;;;;13.47;11.57;;;;;;;;;;4959929;28;20460;-81
2023/07/09 05:30:04;;;;;;;19.83;12.33;;;;;;;;;;4954804;28;20487;-79
2023/07/09 05:32:33;;;;;;;15.20;12.27;;;;;;;;;;4960838;28;20675;-82
2023/07/09 05:35:01;;;;;;;13.33;12.13;;;;;;;;;;4956399;28;20428;-81
2023/07/09 05:37:29;;;;;;;13.70;12.40;;;;;;;;;;4958502;28;20538;-80
2023/07/09 05:39:57;;;;;;;11.93;10.83;;;;;;;;;;4960292;28;20447;-83
2023/07/09 05:42:24;;;;;;;12.43;10.80;;;;;;;;;;4960333;28;20744;-82
2023/07/09 05:44:52;;;;;;;12.77;11.33;;;;;;;;;;4958830;28;20490;-80
2023/07/09 05:47:20;;;;;;;12.40;11.17;;;;;;;;;;4954163;29;20458;-83
2023/07/09 05:49:55;;;;;;;13.87;10.63;;;;;;;;;;4958543;29;20451;-81
2023/07/09 05:52:24;;;;;;;12.53;10.77;;;;;;;;;;4960264;28;20448;-82
2023/07/09 05:54:54;;;;;;;11.73;10.63;;;;;;;;;;4958093;28;20514;-81
2023/07/09 05:57:22;;;;;;;17.03;11.23;;;;;;;;;;4960501;28;20433;-85
2023/07/09 05:59:50;;;;;;;11.57;10.47;;;;;;;;;;4958623;29;20469;-82
2023/07/09 06:02:40;;;;;;;12.07;10.97;;;;;;;;;;4957081;29;20424;-86
2023/07/09 06:05:10;;;;;;;11.50;10.50;;;;;;;;;;4960213;28;20449;-80
2023/07/09 06:07:39;;;;;;;11.80;10.57;;;;;;;;;;4959753;28;20767;-83
2023/07/09 06:10:11;;;;;;;11.87;10.87;;;;;;;;;;4956011;29;20468;-81
2023/07/09 06:12:38;;;;;;;12.97;11.70;;;;;;;;;;4956984;28;20428;-82
2023/07/09 06:15:07;;;;;;;11.07;10.07;;;;;;;;;;4957784;29;20455;-86
2023/07/09 06:17:36;;;;;;;11.60;10.40;;;;;;;;;;4960017;29;20427;-84
2023/07/09 06:20:43;;;;;;;;;;;;;;;;;;;;;
2023/07/09 06:23:20;;;;;;;12.40;10.40;;;;;;;;;;4963749;28;20427;-87
2023/07/09 06:25:51;;;;;;;11.50;10.50;;;;;;;;;;4952723;29;20465;-80
2023/07/09 06:28:19;;;;;;;11.60;10.60;;;;;;;;;;4959870;28;20682;-79
2023/07/09 06:30:48;;;;;;;11.43;10.43;;;;;;;;;;4957416;28;20432;-81
2023/07/09 06:33:16;;;;;;;12.40;11.10;;;;;;;;;;4951993;29;20457;-81
2023/07/09 06:35:47;;;;;;;11.90;10.80;;;;;;;;;;4957955;29;20685;-82
2023/07/09 06:38:17;;;;;;;17.13;10.60;;;;;;;;;;4964920;28;20771;-83
2023/07/09 06:40:45;;;;;;;15.40;10.80;;;;;;;;;;4960919;28;20503;-81
2023/07/09 06:43:12;;;;;;;14.50;10.77;;;;;;;;;;4956609;29;20452;-83
2023/07/09 06:46:01;;;;;;;10.43;9.37;;;;;;;;;;4968512;28;20453;-82
2023/07/09 06:48:30;;;;;;;14.63;9.37;;;;;;;;;;4968965;29;20484;-81
2023/07/09 06:50:58;;;;;;;11.87;10.73;;;;;;;;;;4964255;29;20508;-82
2023/07/09 06:53:26;;;;;;;11.00;10.00;;;;;;;;;;4969068;28;20450;-81
2023/07/09 06:55:58;;;;;;;10.50;9.60;;;;;;;;;;4962457;28;20493;-80
2023/07/09 06:58:27;;;;;;;11.33;10.23;;;;;;;;;;4960703;29;20445;-86
2023/07/09 07:00:55;;;;;;;10.90;9.60;;;;;;;;;;4963770;28;21016;-80
2023/07/09 07:03:23;;;;;;;10.97;10.00;;;;;;;;;;4963598;29;20468;-85
2023/07/09 07:05:55;;;;;;;11.43;10.40;;;;;;;;;;4967223;28;20804;-84
2023/07/09 07:08:40;;;;;;;11.30;10.40;;;;;;;;;;4969344;28;20450;-86
2023/07/09 07:11:08;;;;;;;11.50;10.40;;;;;;;;;;4961854;28;20500;-81
2023/07/09 07:13:36;;;;;;;9.60;8.90;;;;;;;;;;4964470;28;20455;-85
2023/07/09 07:16:07;;;;;;;11.17;10.00;;;;;;;;;;4967471;28;20505;-82
2023/07/09 07:18:36;;;;;;;9.57;8.87;;;;;;;;;;4959483;28;20437;-86
2023/07/09 07:21:11;;;;;;;11.80;9.67;;;;;;;;;;4957180;29;20468;-85
2023/07/09 07:23:42;;;;;;;10.40;9.43;;;;;;;;;;4959166;29;20441;-83
2023/07/09 07:26:10;;;;;;;9.77;8.87;;;;;;;;;;4960080;28;20767;-83
2023/07/09 07:28:37;;;;;;;10.60;9.80;;;;;;;;;;4954863;29;20524;-82
2023/07/09 07:31:10;;;;;;;10.90;9.10;;;;;;;;;;4965729;28;20572;-79
2023/07/09 07:33:39;;;;;;;9.87;8.87;;;;;;;;;;4966879;29;20421;-82
2023/07/09 07:36:07;;;;;;;9.57;8.60;;;;;;;;;;4966913;28;20440;-82
2023/07/09 07:38:37;;;;;;;8.27;7.47;;;;;;;;;;4967303;29;20445;-82
2023/07/09 07:41:05;;;;;;;9.70;8.90;;;;;;;;;;4967289;28;20533;-82
2023/07/09 07:43:32;;;;;;;10.00;9.20;;;;;;;;;;4967397;29;20508;-83
2023/07/09 07:46:02;;;;;;;8.90;8.30;;;;;;;;;;4968498;28;20444;-83
2023/07/09 07:48:31;;;;;;;9.57;8.90;;;;;;;;;;4968679;28;20450;-83
2023/07/09 07:50:59;;;;;;;8.90;8.20;;;;;;;;;;4956194;28;20789;-82
2023/07/09 07:53:29;;;;;;;8.63;8.03;;;;;;;;;;4953669;29;20462;-82
2023/07/09 07:56:02;;;;;;;8.07;7.50;;;;;;;;;;4963215;28;20589;-82
2023/07/09 07:58:32;;;;;;;8.03;7.33;;;;;;;;;;4951569;28;20493;-84
2023/07/09 08:00:59;;;;;;;9.30;8.70;;;;;;;;;;4959978;28;20500;-83
2023/07/09 08:03:27;;;;;;;8.97;8.20;;;;;;;;;;4962152;28;20441;-80
2023/07/09 08:05:55;;;;;;;8.47;7.80;;;;;;;;;;4954158;29;20441;-80
2023/07/09 08:08:24;;;;;;;10.00;9.17;;;;;;;;;;4962466;28;20472;-82
2023/07/09 08:10:51;;;;;;;9.10;8.30;;;;;;;;;;4962516;28;20513;-84
2023/07/09 08:13:19;;;;;;;8.77;8.10;;;;;;;;;;4964884;28;20785;-80
2023/07/09 08:15:47;;;;;;;8.50;7.90;;;;;;;;;;4962146;29;20450;-83
2023/07/09 08:18:16;;;;;;;8.60;8.00;;;;;;;;;;4963690;28;20496;-79
2023/07/09 08:20:44;;;;;;;8.70;8.10;;;;;;;;;;4963497;28;20521;-83
2023/07/09 08:23:12;;;;;;;10.87;9.97;;;;;;;;;;4962239;29;20457;-84
2023/07/09 08:25:39;;;;;;;9.73;8.93;;;;;;;;;;4963307;29;20452;-82
2023/07/09 08:28:07;;;;;;;7.83;7.23;;;;;;;;;;4962479;29;20460;-81
2023/07/09 08:30:35;;;;;;;7.70;7.10;;;;;;;;;;4963005;28;20746;-82
2023/07/09 08:33:02;;;;;;;7.93;7.27;;;;;;;;;;4964898;28;20512;-84
2023/07/09 08:35:32;;;;;;;8.60;8.00;;;;;;;;;;4968168;28;20464;-80
2023/07/09 08:38:03;;;;;;;8.17;7.47;;;;;;;;;;4960254;29;20453;-83
2023/07/09 08:40:30;;;;;;;7.47;6.97;;;;;;;;;;4966759;28;20455;-81
2023/07/09 08:43:07;;;;;;;7.50;6.90;;;;;;;;;;4973504;28;20766;-82
2023/07/09 08:45:50;;;;;;;6.60;6.10;;;;;;;;;;4961863;29;20539;-82
2023/07/09 08:48:18;;;;;;;6.27;5.80;;;;;;;;;;4957897;29;20477;-80
2023/07/09 08:50:48;;;;;;;7.50;6.90;;;;;;;;;;4958269;29;20862;-79
2023/07/09 08:53:35;;;;;;;7.57;6.87;;;;;;;;;;4959959;28;20484;-84
2023/07/09 08:56:03;;;;;;;7.43;6.73;;;;;;;;;;4957333;29;20441;-85
2023/07/09 08:58:31;;;;;;;7.23;6.63;;;;;;;;;;4960944;28;20706;-83
2023/07/09 09:01:04;;;;;;;25.20;23.00;;;;;;;;;;4948503;29;20457;-82
2023/07/09 09:03:39;;;;;;;7.17;6.37;;;;;;;;;;4963116;28;20504;-85
2023/07/09 09:06:14;;;;;;;7.67;7.07;;;;;;;;;;4964861;28;20488;-83
2023/07/09 09:08:45;;;;;;;7.57;6.97;;;;;;;;;;4957046;29;20465;-81
2023/07/09 09:11:21;;;;;;;6.80;6.30;;;;;;;;;;4959950;28;20742;-82
2023/07/09 09:13:51;;;;;;;6.93;6.50;;;;;;;;;;4964930;28;20437;-81
2023/07/09 09:16:27;;;;;;;7.20;6.70;;;;;;;;;;4964905;28;20449;-84
2023/07/09 09:18:58;;;;;;;8.07;7.43;;;;;;;;;;4964634;28;20612;-81
2023/07/09 09:21:29;;;;;;;7.43;6.93;;;;;;;;;;4949126;28;20809;-81
2023/07/09 09:23:59;;;;;;;6.80;6.23;;;;;;;;;;4954615;29;20913;-83
2023/07/09 09:26:30;;;;;;;7.17;6.57;;;;;;;;;;4961692;28;20486;-85
2023/07/09 09:28:58;;;;;;;5.60;5.27;;;;;;;;;;4956082;28;20641;-85
2023/07/09 09:31:30;;;;;;;6.40;5.90;;;;;;;;;;4953951;28;20488;-80
2023/07/09 09:33:57;;;;;;;8.20;7.70;;;;;;;;;;4955441;28;20457;-81
2023/07/09 09:36:26;;;;;;;7.10;6.60;;;;;;;;;;4959340;28;20464;-84
2023/07/09 09:38:55;;;;;;;7.17;6.67;;;;;;;;;;4958554;28;20686;-78
2023/07/09 09:41:30;;;;;;;6.27;5.77;;;;;;;;;;4961931;28;20471;-87
2023/07/09 09:43:58;;;;;;;6.70;6.10;;;;;;;;;;4956877;28;20741;-83
2023/07/09 09:46:27;;;;;;;7.17;6.67;;;;;;;;;;4955998;28;20438;-85
2023/07/09 09:48:56;;;;;;;6.53;6.13;;;;;;;;;;4972207;28;20445;-80
2023/07/09 09:51:23;;;;;;;7.20;6.60;;;;;;;;;;4961337;28;20449;-83
2023/07/09 09:53:53;;;;;;;6.57;5.50;;;;;;;;;;4959599;29;20615;-79
2023/07/09 09:56:25;;;;;;;7.33;6.63;;;;;;;;;;4957707;29;20552;-83
2023/07/09 09:58:54;;;;;;;5.83;5.33;;;;;;;;;;4952039;29;20533;-82
2023/07/09 10:01:26;;;;;;;6.27;5.77;;;;;;;;;;4949358;28;20510;-84
2023/07/09 10:03:56;;;;;;;7.63;6.83;;;;;;;;;;4958647;28;21376;-85
2023/07/09 10:06:43;;;;;;;6.00;5.53;;;;;;;;;;4956182;28;20448;-83
2023/07/09 10:09:30;;;;;;;6.13;5.73;;;;;;;;;;4953029;29;20530;-82
2023/07/09 10:12:16;;;;;;;6.17;5.67;;;;;;;;;;4955506;29;20805;-82
2023/07/09 10:14:47;;;;;;;6.37;5.87;;;;;;;;;;4963894;28;20432;-79
2023/07/09 10:17:20;;;;;;;5.60;5.20;;;;;;;;;;4956855;29;20650;-81
2023/07/09 10:19:57;;;;;;;6.50;5.97;;;;;;;;;;4959355;28;20667;-86
2023/07/09 10:22:45;;;;;;;6.07;5.57;;;;;;;;;;4964341;28;20471;-81
2023/07/09 10:25:30;;;;;;;5.90;5.50;;;;;;;;;;4957618;28;20533;-77
2023/07/09 10:28:17;;;;;;;7.43;5.60;;;;;;;;;;4963018;28;20496;-81
2023/07/09 10:31:06;;;;;;;5.80;5.40;;;;;;;;;;4957720;28;20489;-82
2023/07/09 10:33:34;;;;;;;6.30;5.90;;;;;;;;;;4956297;29;20473;-80
2023/07/09 10:36:22;;;;;;;5.97;5.57;;;;;;;;;;4963350;28;20574;-81
2023/07/09 10:39:00;;;;;;;5.83;5.43;;;;;;;;;;4958028;28;20444;-82
2023/07/09 10:41:28;;;;;;;7.00;6.37;;;;;;;;;;4959010;29;20807;-82
2023/07/09 10:43:56;;;;;;;6.80;6.30;;;;;;;;;;4958488;28;20457;-82
2023/07/09 10:46:26;;;;;;;5.93;5.53;;;;;;;;;;4958719;29;20513;-82
2023/07/09 10:48:55;;;;;;;6.60;6.10;;;;;;;;;;4960238;29;20477;-83
2023/07/09 10:51:33;;;;;;;6.73;6.23;;;;;;;;;;4960226;28;20849;-79
2023/07/09 10:54:13;;;;;;;6.60;6.10;;;;;;;;;;4963192;29;20433;-80
2023/07/09 10:56:41;;;;;;;6.13;5.73;;;;;;;;;;4960566;29;20745;-81
2023/07/09 10:59:28;;;;;;;6.47;6.07;;;;;;;;;;4961871;28;20449;-85
2023/07/09 11:02:01;;;;;;;7.13;6.53;;;;;;;;;;4957330;29;20523;-80
2023/07/09 11:04:49;;;;;;;6.40;5.90;;;;;;;;;;4961480;28;20765;-83
2023/07/09 11:07:20;;;;;;;6.70;5.90;;;;;;;;;;4962303;28;20438;-79
2023/07/09 11:09:51;;;;;;;7.77;5.37;;;;;;;;;;4959703;28;20573;-84
2023/07/09 11:12:26;;;;;;;5.90;5.40;;;;;;;;;;4963293;28;20472;-82
2023/07/09 11:15:01;;;;;;;5.37;4.97;;;;;;;;;;4960211;29;20441;-80
2023/07/09 11:17:29;;;;;;;6.07;5.57;;;;;;;;;;4958134;29;20469;-80
2023/07/09 11:20:01;;;;;;;6.63;6.13;;;;;;;;;;4960599;29;20426;-79
2023/07/09 11:22:38;;;;;;;5.83;5.43;;;;;;;;;;4965762;29;20473;-80
2023/07/09 11:25:15;;;;;;;6.00;5.50;;;;;;;;;;4961023;29;20456;-82
2023/07/09 11:27:50;;;;;;;6.30;5.90;;;;;;;;;;4963452;28;20512;-81
2023/07/09 11:30:22;;;;;;;7.77;5.97;;;;;;;;;;4960774;28;20556;-84
2023/07/09 11:32:54;;;;;;;6.50;5.90;;;;;;;;;;4961807;29;20492;-83
2023/07/09 11:35:46;;;;;;;5.83;5.23;;;;;;;;;;4953734;29;20698;-86
2023/07/09 11:38:24;;;;;;;7.17;6.57;;;;;;;;;;4951449;28;20441;-85
2023/07/09 11:40:54;;;;;;;6.93;6.40;;;;;;;;;;4962510;29;20840;-85
2023/07/09 11:43:31;;;;;;;6.40;5.90;;;;;;;;;;4957604;29;20449;-81
2023/07/09 11:46:06;;;;;;;6.17;5.73;;;;;;;;;;4961003;29;20548;-84
2023/07/09 11:48:37;;;;;;;6.50;6.00;;;;;;;;;;4959726;29;20507;-81
2023/07/09 11:51:09;;;;;;;6.73;6.13;;;;;;;;;;4960907;29;20675;-85
2023/07/09 11:53:42;;;;;;;6.50;5.90;;;;;;;;;;4958517;29;20445;-84
2023/07/09 11:56:10;;;;;;;6.10;5.70;;;;;;;;;;4961648;28;20504;-83
2023/07/09 11:58:48;;;;;;;6.60;6.00;;;;;;;;;;4958875;28;20456;-85
2023/07/09 12:01:17;;;;;;;7.17;6.47;;;;;;;;;;4962842;29;20649;-80
2023/07/09 12:03:46;;;;;;;5.67;5.37;;;;;;;;;;4959590;28;20455;-83
2023/07/09 12:06:18;;;;;;;6.73;6.20;;;;;;;;;;4961852;29;20520;-87
2023/07/09 12:08:46;;;;;;;6.37;5.87;;;;;;;;;;4962122;29;20520;-82
2023/07/09 12:11:33;;;;;;;6.37;5.97;;;;;;;;;;4962234;28;20484;-84
2023/07/09 12:14:11;;;;;;;6.40;5.80;;;;;;;;;;4954321;29;20797;-83
2023/07/09 12:16:40;;;;;;;6.43;5.83;;;;;;;;;;4958099;29;20524;-83
2023/07/09 12:19:11;;;;;;;6.03;5.53;;;;;;;;;;4961655;28;20525;-83
2023/07/09 12:21:40;;;;;;;6.67;6.00;;;;;;;;;;4958849;28;20556;-83
2023/07/09 12:24:24;;;;;;;6.30;5.80;;;;;;;;;;4962213;28;20517;-84
2023/07/09 12:26:52;;;;;;;7.60;5.60;;;;;;;;;;4962572;28;20449;-81
2023/07/09 12:29:20;;;;;;;6.30;5.80;;;;;;;;;;4956113;29;20456;-85
2023/07/09 12:31:47;;;;;;;6.40;5.90;;;;;;;;;;4959942;28;20796;-86
2023/07/09 12:34:15;;;;;;;7.13;6.57;;;;;;;;;;4962254;28;20444;-88
2023/07/09 12:36:50;;;;;;;6.30;5.80;;;;;;;;;;4961569;29;20449;-81
2023/07/09 12:39:20;;;;;;;6.70;6.10;;;;;;;;;;4966371;28;20503;-85
2023/07/09 12:41:48;;;;;;;6.30;5.90;;;;;;;;;;4962377;28;20452;-82
2023/07/09 12:44:17;;;;;;;5.80;5.40;;;;;;;;;;4960933;29;20481;-84
2023/07/09 12:46:44;;;;;;;6.60;6.00;;;;;;;;;;4953569;28;21000;-81
2023/07/09 12:49:24;;;;;;;6.37;5.87;;;;;;;;;;4958972;29;20465;-84
2023/07/09 12:51:51;;;;;;;6.77;6.30;;;;;;;;;;4963819;28;20516;-83
2023/07/09 12:54:21;;;;;;;6.60;6.00;;;;;;;;;;4970958;28;20449;-84
2023/07/09 12:56:52;;;;;;;6.40;5.90;;;;;;;;;;4963178;28;20532;-84
2023/07/09 12:59:24;;;;;;;5.90;5.50;;;;;;;;;;4961163;29;20449;-83
2023/07/09 13:01:56;;;;;;;6.17;5.67;;;;;;;;;;4959379;28;20529;-82
2023/07/09 13:04:31;;;;;;;6.00;5.60;;;;;;;;;;4962851;28;20441;-85
2023/07/09 13:06:59;;;;;;;5.70;5.20;;;;;;;;;;4961618;29;20445;-84
2023/07/09 13:09:28;;;;;;;6.80;6.30;;;;;;;;;;4961598;28;20458;-82
2023/07/09 13:11:56;;;;;;;8.90;5.40;;;;;;;;;;4962313;28;20493;-84
2023/07/09 13:14:27;;;;;;;6.20;5.80;;;;;;;;;;4961044;29;20449;-84
2023/07/09 13:17:04;;;;;;;5.90;5.40;;;;;;;;;;4960191;29;20445;-86
2023/07/09 13:19:34;;;;;;;6.13;5.63;;;;;;;;;;4959616;28;20456;-86
2023/07/09 13:22:02;;;;;;;6.50;6.03;;;;;;;;;;4961202;28;20449;-85
2023/07/09 13:24:32;;;;;;;6.93;6.37;;;;;;;;;;4961477;28;20520;-82
2023/07/09 13:27:00;;;;;;;6.93;6.47;;;;;;;;;;4962294;28;20513;-86
2023/07/09 13:29:31;;;;;;;5.33;4.83;;;;;;;;;;4958195;29;20433;-82
2023/07/09 13:31:59;;;;;;;6.63;6.13;;;;;;;;;;4965013;28;20753;-83
2023/07/09 13:34:27;;;;;;;6.63;6.13;;;;;;;;;;4964612;28;20441;-82
2023/07/09 13:36:58;;;;;;;6.33;5.60;;;;;;;;;;4963161;28;20441;-84
2023/07/09 13:39:25;;;;;;;6.90;6.40;;;;;;;;;;4968345;28;20441;-81
2023/07/09 13:41:55;;;;;;;7.30;6.53;;;;;;;;;;4969169;28;20441;-83
2023/07/09 13:44:27;;;;;;;5.77;5.40;;;;;;;;;;4968681;29;20604;-85
2023/07/09 13:46:56;;;;;;;6.50;6.00;;;;;;;;;;4961376;28;20825;-87
2023/07/09 13:49:27;;;;;;;5.70;5.10;;;;;;;;;;4959704;28;20548;-87
2023/07/09 13:51:57;;;;;;;5.60;5.20;;;;;;;;;;4962074;28;20485;-84
2023/07/09 13:54:37;;;;;;;6.80;6.30;;;;;;;;;;4959431;28;20526;-81
2023/07/09 13:57:06;;;;;;;6.20;5.70;;;;;;;;;;4961765;28;20453;-83
2023/07/09 13:59:33;;;;;;;5.83;5.37;;;;;;;;;;4964987;29;20500;-84
2023/07/09 14:02:02;;;;;;;6.30;5.87;;;;;;;;;;4972695;28;20456;-80
2023/07/09 14:04:33;;;;;;;6.20;5.10;;;;;;;;;;4971254;28;20448;-83
2023/07/09 14:07:01;;;;;;;7.40;5.73;;;;;;;;;;4967632;29;20491;-83
2023/07/09 14:09:29;;;;;;;5.20;4.80;;;;;;;;;;4963209;28;20508;-83
2023/07/09 14:11:56;;;;;;;6.77;6.03;;;;;;;;;;4961771;28;20477;-83
2023/07/09 14:14:31;;;;;;;5.70;5.30;;;;;;;;;;4961793;28;20461;-79
2023/07/09 14:16:59;;;;;;;6.40;5.90;;;;;;;;;;4960985;29;20467;-82
2023/07/09 14:19:28;;;;;;;6.00;5.53;;;;;;;;;;4961966;29;20456;-85
2023/07/09 14:21:55;;;;;;;6.50;6.00;;;;;;;;;;4963377;28;20456;-84
2023/07/09 14:24:26;;;;;;;5.50;5.20;;;;;;;;;;4955060;29;20488;-84
2023/07/09 14:26:54;;;;;;;6.03;5.63;;;;;;;;;;4965468;28;20448;-85
2023/07/09 14:29:22;;;;;;;9.20;5.80;;;;;;;;;;4959966;28;20445;-86
2023/07/09 14:31:50;;;;;;;5.60;5.00;;;;;;;;;;4958007;28;20556;-84
2023/07/09 14:34:22;;;;;;;6.33;5.00;;;;;;;;;;4959967;29;20520;-82
2023/07/09 14:36:50;;;;;;;6.23;5.63;;;;;;;;;;4964726;29;20461;-82
2023/07/09 14:39:18;;;;;;;5.20;4.80;;;;;;;;;;4963346;29;20449;-87
2023/07/09 14:41:45;;;;;;;6.23;5.73;;;;;;;;;;4964898;28;20528;-82
2023/07/09 14:44:22;;;;;;;5.67;5.27;;;;;;;;;;4959484;28;20687;-86
2023/07/09 14:46:50;;;;;;;5.73;5.30;;;;;;;;;;4958508;29;20425;-86
2023/07/09 14:49:18;;;;;;;5.57;5.17;;;;;;;;;;4958224;28;20676;-84